Time;durP1;ratioP1;P1;durP2;ratioP2;P2;SDS_P1;SDS_P2;PMS_P1;PMS_P2;Temp;Humidity;BMP_temperature;BMP_pressure;BME280_temperature;BME280_humidity;BME280_pressure;Samples;Min_cycle;Max_cycle;Signal;HPM_P1;HPM_P2
2022/11/28 00:00:59;;;;;;;11.00;8.45;;;4.40;99.90;;;;;;5071304;28;20044;-72
2022/11/28 00:03:25;;;;;;;16.27;8.13;;;4.30;99.90;;;;;;5070653;28;20029;-72
2022/11/28 00:05:51;;;;;;;11.57;7.65;;;4.30;99.90;;;;;;5071830;28;20039;-69
2022/11/28 00:08:17;;;;;;;13.68;9.35;;;4.30;99.90;;;;;;5067964;28;20550;-69
2022/11/28 00:10:42;;;;;;;10.75;8.02;;;4.40;99.90;;;;;;5072217;28;20108;-73
2022/11/28 00:13:08;;;;;;;13.20;8.65;;;4.40;99.90;;;;;;5072584;28;20368;-73
2022/11/28 00:15:34;;;;;;;11.52;8.45;;;4.40;99.90;;;;;;5069259;28;20434;-72
2022/11/28 00:17:59;;;;;;;11.57;8.30;;;4.40;99.90;;;;;;5066366;28;20103;-72
2022/11/28 00:20:25;;;;;;;12.50;8.68;;;4.40;99.90;;;;;;5057052;28;20534;-71
2022/11/28 00:22:51;;;;;;;11.88;7.63;;;4.40;99.90;;;;;;5073065;28;20039;-72
2022/11/28 00:25:17;;;;;;;11.98;8.18;;;4.40;99.90;;;;;;5071832;28;20055;-69
2022/11/28 00:27:43;;;;;;;13.32;8.05;;;4.40;99.90;;;;;;5071785;28;20032;-72
2022/11/28 00:30:09;;;;;;;11.20;8.20;;;4.50;99.90;;;;;;5080014;28;20032;-71
2022/11/28 00:32:35;;;;;;;13.73;8.00;;;4.50;99.90;;;;;;5066407;28;20035;-72
2022/11/28 00:35:00;;;;;;;10.20;7.65;;;4.50;99.90;;;;;;5071887;28;20040;-72
2022/11/28 00:37:26;;;;;;;10.75;7.40;;;4.50;99.90;;;;;;5071439;28;20378;-72
2022/11/28 00:39:51;;;;;;;11.35;7.60;;;4.60;99.90;;;;;;5055129;28;20025;-72
2022/11/28 00:42:19;;;;;;;14.25;7.93;;;4.60;99.90;;;;;;5070471;28;20047;-70
2022/11/28 00:44:46;;;;;;;11.88;7.95;;;4.60;99.90;;;;;;5071157;28;20074;-71
2022/11/28 00:47:11;;;;;;;12.75;8.20;;;4.60;99.90;;;;;;5061879;28;20037;-72
2022/11/28 00:49:37;;;;;;;11.07;7.75;;;4.60;99.90;;;;;;5072260;28;20024;-72
2022/11/28 00:52:02;;;;;;;11.40;7.97;;;4.60;99.90;;;;;;5071293;28;20036;-71
2022/11/28 00:54:28;;;;;;;12.40;7.78;;;4.60;99.90;;;;;;5059969;28;20028;-72
2022/11/28 00:56:54;;;;;;;13.40;8.25;;;4.50;99.90;;;;;;5052174;28;20029;-71
2022/11/28 00:59:19;;;;;;;12.20;7.70;;;4.50;99.90;;;;;;5054527;28;20029;-69
2022/11/28 01:01:45;;;;;;;11.00;7.68;;;4.50;99.90;;;;;;5052797;28;20064;-72
2022/11/28 01:04:13;;;;;;;12.20;7.93;;;4.40;99.90;;;;;;5064981;28;20091;-72
2022/11/28 01:06:43;;;;;;;13.85;8.85;;;4.40;99.90;;;;;;5068451;28;20475;-72
2022/11/28 01:09:15;;;;;;;12.88;8.65;;;4.40;99.90;;;;;;5072292;28;20059;-72
2022/11/28 01:11:41;;;;;;;12.32;8.57;;;4.40;99.90;;;;;;5070075;28;20079;-72
2022/11/28 01:14:08;;;;;;;13.07;8.27;;;4.50;99.90;;;;;;5071280;28;20107;-72
2022/11/28 01:16:34;;;;;;;11.52;7.90;;;4.40;99.90;;;;;;5069265;28;20471;-72
2022/11/28 01:18:59;;;;;;;13.40;8.43;;;4.40;99.90;;;;;;5060972;28;20032;-73
2022/11/28 01:21:25;;;;;;;11.07;7.97;;;4.40;99.90;;;;;;5067702;28;20411;-73
2022/11/28 01:23:51;;;;;;;10.43;7.53;;;4.30;99.90;;;;;;5058423;28;20073;-71
2022/11/28 01:26:19;;;;;;;11.40;7.43;;;4.30;99.90;;;;;;5065958;28;20028;-70
2022/11/28 01:28:46;;;;;;;11.85;7.10;;;4.30;99.90;;;;;;5068908;28;20513;-72
2022/11/28 01:31:20;;;;;;;13.05;8.13;;;4.30;99.90;;;;;;5070277;28;20481;-71
2022/11/28 01:33:46;;;;;;;13.23;7.82;;;4.30;99.90;;;;;;5067121;28;20032;-72
2022/11/28 01:36:12;;;;;;;11.32;7.47;;;4.30;99.90;;;;;;5052308;28;20031;-72
2022/11/28 01:38:39;;;;;;;10.70;6.50;;;4.30;99.90;;;;;;5061306;28;20120;-71
2022/11/28 01:41:05;;;;;;;12.30;7.32;;;4.30;99.90;;;;;;5067275;28;20024;-71
2022/11/28 01:43:31;;;;;;;10.95;6.63;;;4.30;99.90;;;;;;5070683;28;20040;-72
2022/11/28 01:45:57;;;;;;;10.85;6.95;;;4.30;99.90;;;;;;5071304;27;20403;-72
2022/11/28 01:48:28;;;;;;;10.30;7.05;;;4.20;99.90;;;;;;5070948;28;20020;-71
2022/11/28 01:51:00;;;;;;;9.85;6.35;;;4.20;99.90;;;;;;5069692;28;20429;-72
2022/11/28 01:53:29;;;;;;;8.88;5.88;;;4.20;99.90;;;;;;5055679;28;20052;-72
2022/11/28 01:56:00;;;;;;;9.48;6.60;;;4.20;99.90;;;;;;5058442;28;20086;-72
2022/11/28 01:58:28;;;;;;;11.95;6.90;;;4.20;99.90;;;;;;5070627;28;20040;-72
2022/11/28 02:00:54;;;;;;;8.70;6.25;;;4.20;99.90;;;;;;5071011;28;20443;-72
2022/11/28 02:03:28;;;;;;;9.48;5.95;;;4.10;99.90;;;;;;5070098;28;20103;-69
2022/11/28 02:05:55;;;;;;;8.52;5.95;;;4.10;99.90;;;;;;5070354;28;20052;-72
2022/11/28 02:08:20;;;;;;;11.40;7.30;;;4.00;99.90;;;;;;5070477;28;20052;-69
2022/11/28 02:11:34;;;;;;;9.40;6.32;;;4.00;99.90;;;;;;5076972;28;20083;-72
2022/11/28 02:14:41;;;;;;;11.30;7.57;;;3.90;99.90;;;;;;5061542;28;20027;-72
2022/11/28 02:17:36;;;;;;;12.65;7.38;;;3.90;99.90;;;;;;4989240;28;20056;-72
2022/11/28 02:20:16;;;;;;;9.48;6.90;;;3.90;99.90;;;;;;5057170;28;20036;-72
2022/11/28 02:23:33;;;;;;;11.43;6.63;;;3.90;99.90;;;;;;5069973;28;20078;-71
2022/11/28 02:26:12;;;;;;;8.98;6.25;;;3.90;99.90;;;;;;5012117;28;20112;-71
2022/11/28 02:29:15;;;;;;;9.82;6.90;;;3.80;99.90;;;;;;5069956;28;20041;-72
2022/11/28 02:32:06;;;;;;;10.38;6.88;;;3.80;99.90;;;;;;5058868;28;20043;-72
2022/11/28 02:34:31;;;;;;;;;;;3.80;99.90;;;;;;5070615;28;20078;-72
2022/11/28 02:37:06;;;;;;;11.00;7.00;;;3.80;99.90;;;;;;5069766;28;20406;-72
2022/11/28 02:39:53;;;;;;;10.23;7.18;;;3.90;99.90;;;;;;5056764;28;20504;-72
2022/11/28 02:42:29;;;;;;;12.00;7.85;;;3.90;99.90;;;;;;5036133;28;20036;-69
2022/11/28 02:45:12;;;;;;;11.57;8.23;;;3.90;99.90;;;;;;5063197;28;20084;-72
2022/11/28 02:47:48;;;;;;;11.73;7.97;;;3.90;99.90;;;;;;5056834;28;20778;-72
2022/11/28 02:50:37;;;;;;;12.48;7.35;;;4.00;99.90;;;;;;5072209;28;20027;-72
2022/11/28 02:53:07;;;;;;;12.80;8.48;;;4.00;99.90;;;;;;5027867;28;20037;-72
2022/11/28 02:55:38;;;;;;;12.13;7.50;;;4.10;99.90;;;;;;5054790;28;20151;-72
2022/11/28 02:58:04;;;;;;;10.90;7.50;;;4.10;99.90;;;;;;5054896;28;20029;-72
2022/11/28 03:00:33;;;;;;;11.07;7.68;;;4.10;99.90;;;;;;5053785;28;20132;-71
2022/11/28 03:03:23;;;;;;;10.45;7.53;;;4.10;99.90;;;;;;5074999;28;20040;-72
2022/11/28 03:06:06;;;;;;;11.73;7.60;;;4.00;99.90;;;;;;5074176;28;20024;-71
2022/11/28 03:08:59;;;;;;;11.07;7.18;;;4.10;99.90;;;;;;5073844;28;20021;-72
2022/11/28 03:11:48;;;;;;;12.52;7.38;;;4.10;99.90;;;;;;5073254;28;20470;-71
2022/11/28 03:14:22;;;;;;;14.30;8.10;;;4.10;99.90;;;;;;5073158;28;20050;-72
2022/11/28 03:17:09;;;;;;;11.77;7.90;;;4.10;99.90;;;;;;5057684;28;20040;-72
2022/11/28 03:20:01;;;;;;;13.13;7.95;;;4.10;99.90;;;;;;5076325;28;20092;-73
2022/11/28 03:22:57;;;;;;;12.00;7.03;;;4.10;99.90;;;;;;5068143;28;20040;-73
2022/11/28 03:25:34;;;;;;;10.20;6.88;;;4.20;99.90;;;;;;5068983;28;20028;-69
2022/11/28 03:28:21;;;;;;;10.00;7.05;;;4.10;99.90;;;;;;5072444;28;20035;-72
2022/11/28 03:31:11;;;;;;;14.85;7.65;;;4.10;99.90;;;;;;5074057;28;20048;-72
2022/11/28 03:33:40;;;;;;;11.90;8.37;;;4.10;99.90;;;;;;5078969;28;20029;-72
2022/11/28 03:36:17;;;;;;;9.68;6.72;;;4.10;99.90;;;;;;5062281;28;20434;-72
2022/11/28 03:38:47;;;;;;;10.75;7.57;;;4.20;99.90;;;;;;5072727;28;20047;-70
2022/11/28 03:41:34;;;;;;;10.55;7.00;;;4.20;99.90;;;;;;5073885;28;20029;-72
2022/11/28 03:47:17;;;;;;;8.52;6.78;;;4.30;99.90;;;;;;5079293;27;20123;-72
2022/11/28 03:49:53;;;;;;;8.80;6.20;;;4.30;99.90;;;;;;5073020;28;20115;-73
2022/11/28 03:52:26;;;;;;;11.05;7.07;;;4.20;99.90;;;;;;5070869;28;20055;-69
2022/11/28 03:54:58;;;;;;;12.45;7.82;;;4.20;99.90;;;;;;5065628;28;20032;-72
2022/11/28 03:57:58;;;;;;;10.35;6.72;;;4.20;99.90;;;;;;5072523;28;20034;-72
2022/11/28 04:00:24;;;;;;;11.40;6.68;;;4.20;99.90;;;;;;5065247;28;20037;-73
2022/11/28 04:02:56;;;;;;;9.93;6.45;;;4.10;99.90;;;;;;5072103;28;20050;-72
2022/11/28 04:05:44;;;;;;;9.25;6.57;;;4.00;99.90;;;;;;5072941;28;20032;-69
2022/11/28 04:08:31;;;;;;;10.15;7.13;;;4.00;99.90;;;;;;5062914;28;20478;-72
2022/11/28 04:11:11;;;;;;;9.52;6.43;;;4.00;99.90;;;;;;5070213;28;20497;-72
2022/11/28 04:13:37;;;;;;;9.45;6.60;;;4.10;99.90;;;;;;5072150;28;20060;-72
2022/11/28 04:16:17;;;;;;;10.23;6.90;;;4.00;99.90;;;;;;5072865;28;20071;-72
2022/11/28 04:18:57;;;;;;;8.38;6.32;;;3.90;99.90;;;;;;5064703;28;20039;-73
2022/11/28 04:21:38;;;;;;;7.80;6.00;;;3.90;99.90;;;;;;5052007;28;20052;-72
2022/11/28 04:24:17;;;;;;;9.73;6.45;;;3.90;99.90;;;;;;5068026;28;20041;-72
2022/11/28 04:26:47;;;;;;;12.27;7.18;;;3.90;99.90;;;;;;5060774;28;20036;-72
2022/11/28 04:29:19;;;;;;;10.43;7.03;;;3.90;99.90;;;;;;5073028;28;20024;-72
2022/11/28 04:31:47;;;;;;;9.68;7.03;;;3.90;99.90;;;;;;5071633;28;20032;-72
2022/11/28 04:34:17;;;;;;;13.95;8.13;;;3.90;99.90;;;;;;5059663;28;20563;-72
2022/11/28 04:36:45;;;;;;;14.02;8.20;;;3.90;99.90;;;;;;5071825;28;20024;-72
2022/11/28 04:39:16;;;;;;;11.27;6.90;;;3.90;99.90;;;;;;5072719;28;20025;-72
2022/11/28 04:41:54;;;;;;;10.80;7.55;;;3.90;99.90;;;;;;5074664;28;20035;-73
2022/11/28 04:44:48;;;;;;;12.38;7.50;;;3.80;99.90;;;;;;5072032;28;20095;-70
2022/11/28 04:47:14;;;;;;;11.60;6.93;;;3.80;99.90;;;;;;5074165;27;20123;-73
2022/11/28 04:49:40;;;;;;;11.73;7.00;;;3.80;99.90;;;;;;5061864;28;20622;-73
2022/11/28 04:52:14;;;;;;;11.00;7.53;;;3.70;99.90;;;;;;5068713;28;20025;-73
2022/11/28 04:54:58;;;;;;;9.48;7.00;;;3.70;99.90;;;;;;5068331;28;20032;-71
2022/11/28 04:57:47;;;;;;;12.60;7.82;;;3.80;99.90;;;;;;5070224;28;20039;-69
2022/11/28 05:00:15;;;;;;;11.27;6.82;;;3.70;99.90;;;;;;5068692;28;20044;-72
2022/11/28 05:02:43;;;;;;;10.65;7.03;;;3.70;99.90;;;;;;5053360;28;20660;-72
2022/11/28 05:05:16;;;;;;;12.38;7.78;;;3.70;99.90;;;;;;5071460;28;20051;-72
2022/11/28 05:07:41;;;;;;;14.50;9.25;;;3.70;99.90;;;;;;5071245;28;20136;-72
2022/11/28 05:10:09;;;;;;;12.70;8.25;;;3.70;99.90;;;;;;5072341;28;20467;-73
2022/11/28 05:12:34;;;;;;;11.85;7.65;;;3.70;99.90;;;;;;5070886;28;20032;-72
2022/11/28 05:15:00;;;;;;;9.60;6.47;;;3.70;99.90;;;;;;5071224;28;20082;-72
2022/11/28 05:17:26;;;;;;;12.75;7.35;;;3.70;99.90;;;;;;5074061;28;20104;-72
2022/11/28 05:19:51;;;;;;;12.10;7.25;;;3.70;99.90;;;;;;5054039;28;20029;-72
2022/11/28 05:22:17;;;;;;;9.43;6.85;;;3.70;99.90;;;;;;5051637;28;20028;-69
2022/11/28 05:24:42;;;;;;;9.80;6.75;;;3.70;99.90;;;;;;5056355;28;20070;-71
2022/11/28 05:27:10;;;;;;;18.05;7.32;;;3.70;99.90;;;;;;5071936;28;20460;-73
2022/11/28 05:29:36;;;;;;;11.90;7.82;;;3.80;99.90;;;;;;5068814;28;20104;-72
2022/11/28 05:32:02;;;;;;;14.48;7.75;;;3.80;99.90;;;;;;5070990;28;20115;-72
2022/11/28 05:34:29;;;;;;;10.65;7.35;;;3.90;99.90;;;;;;5058018;28;20024;-72
2022/11/28 05:36:54;;;;;;;11.38;7.30;;;4.00;99.90;;;;;;5071174;28;20033;-72
2022/11/28 05:39:20;;;;;;;10.07;7.07;;;4.00;99.90;;;;;;5071129;28;20154;-70
2022/11/28 05:41:45;;;;;;;11.23;6.78;;;4.00;99.90;;;;;;5066882;28;20032;-74
2022/11/28 05:44:11;;;;;;;10.80;7.13;;;4.00;99.90;;;;;;5070425;28;20154;-72
2022/11/28 05:46:36;;;;;;;11.15;7.22;;;4.10;99.90;;;;;;5070519;28;20052;-73
2022/11/28 05:49:02;;;;;;;13.60;7.95;;;4.10;99.90;;;;;;5071338;28;20047;-70
2022/11/28 05:51:28;;;;;;;10.80;7.35;;;4.20;99.90;;;;;;5066776;28;20036;-72
2022/11/28 05:53:53;;;;;;;11.85;7.03;;;4.20;99.90;;;;;;5067547;28;20028;-72
2022/11/28 05:56:21;;;;;;;9.55;5.60;;;4.30;99.90;;;;;;5069674;28;20477;-68
2022/11/28 05:58:48;;;;;;;10.27;6.25;;;4.50;99.90;;;;;;5071360;28;20495;-72
2022/11/28 06:01:17;;;;;;;8.60;6.28;;;4.80;99.90;;;;;;5069514;28;20048;-73
2022/11/28 06:03:43;;;;;;;9.77;5.93;;;4.80;99.90;;;;;;5070671;28;20043;-72
2022/11/28 06:06:16;;;;;;;9.05;5.65;;;4.80;99.90;;;;;;5071348;28;20103;-72
2022/11/28 06:08:43;;;;;;;9.13;5.50;;;4.80;99.90;;;;;;5074603;28;20025;-71
2022/11/28 06:11:09;;;;;;;8.80;7.03;;;4.80;99.90;;;;;;5063668;28;20052;-72
2022/11/28 06:13:35;;;;;;;12.05;7.10;;;4.80;99.90;;;;;;5070247;28;20393;-71
2022/11/28 06:16:01;;;;;;;10.80;7.22;;;4.80;99.90;;;;;;5071273;28;20202;-73
2022/11/28 06:18:26;;;;;;;13.07;8.10;;;4.80;99.90;;;;;;5063937;28;20017;-73
2022/11/28 06:20:52;;;;;;;11.50;7.47;;;4.70;99.90;;;;;;5060749;28;20451;-73
2022/11/28 06:23:17;;;;;;;9.98;7.00;;;4.60;99.90;;;;;;5070530;28;20024;-69
2022/11/28 06:25:43;;;;;;;13.15;7.63;;;4.50;99.90;;;;;;5071492;28;20029;-73
2022/11/28 06:28:09;;;;;;;10.90;7.20;;;4.40;99.90;;;;;;5062659;28;20503;-72
2022/11/28 06:30:34;;;;;;;12.57;7.97;;;4.30;99.90;;;;;;5051574;28;20032;-72
2022/11/28 06:33:00;;;;;;;11.75;7.15;;;4.30;99.90;;;;;;5064692;28;20406;-71
2022/11/28 06:35:25;;;;;;;9.05;6.80;;;4.20;99.90;;;;;;5068482;28;20032;-71
2022/11/28 06:37:51;;;;;;;12.85;7.85;;;4.10;99.90;;;;;;5071163;28;20527;-72
2022/11/28 06:40:17;;;;;;;11.02;7.38;;;4.10;99.90;;;;;;5070841;28;20040;-72
2022/11/28 06:42:42;;;;;;;9.63;6.70;;;4.00;99.90;;;;;;5069101;28;20060;-73
2022/11/28 06:45:08;;;;;;;11.85;7.82;;;4.00;99.90;;;;;;5069966;28;20499;-71
2022/11/28 06:47:35;;;;;;;14.25;7.55;;;3.90;99.90;;;;;;5067628;28;20139;-72
2022/11/28 06:50:01;;;;;;;12.48;7.78;;;3.90;99.90;;;;;;5066280;28;20178;-71
2022/11/28 06:52:27;;;;;;;13.80;8.20;;;3.80;99.90;;;;;;5067738;28;20423;-72
2022/11/28 06:54:52;;;;;;;13.68;8.52;;;3.80;99.90;;;;;;5061765;28;20029;-72
2022/11/28 06:57:18;;;;;;;17.42;9.80;;;3.80;99.90;;;;;;5050275;28;20074;-69
2022/11/28 07:05:27;;;;;;;12.10;7.78;;;3.80;99.90;;;;;;5063136;28;20506;-74
2022/11/28 07:07:53;;;;;;;15.10;7.90;;;3.80;99.90;;;;;;5069490;28;20037;-73
2022/11/28 07:10:20;;;;;;;15.27;8.20;;;3.90;99.90;;;;;;5069431;28;20020;-70
2022/11/28 07:12:45;;;;;;;10.43;6.72;;;3.90;99.90;;;;;;5066545;28;20021;-72
2022/11/28 07:15:11;;;;;;;11.68;7.30;;;4.00;99.90;;;;;;5069854;28;20630;-74
2022/11/28 07:17:37;;;;;;;17.30;7.82;;;4.00;99.90;;;;;;5058492;28;20871;-75
2022/11/28 07:20:04;;;;;;;10.90;6.60;;;4.00;99.90;;;;;;5070692;28;20082;-74
2022/11/28 07:22:29;;;;;;;12.38;6.88;;;4.00;99.90;;;;;;5077894;28;20489;-71
2022/11/28 07:24:55;;;;;;;12.73;7.05;;;4.00;99.90;;;;;;5065347;28;20033;-74
2022/11/28 07:27:21;;;;;;;10.05;6.10;;;4.10;99.90;;;;;;5060198;28;20056;-70
2022/11/28 07:29:46;;;;;;;11.98;7.00;;;4.10;99.90;;;;;;5061197;28;20035;-74
2022/11/28 07:32:12;;;;;;;11.35;6.68;;;4.10;99.90;;;;;;5069369;28;20368;-78
2022/11/28 07:34:40;;;;;;;9.98;6.68;;;4.10;99.90;;;;;;5068368;28;20079;-73
2022/11/28 07:37:05;;;;;;;15.98;8.32;;;4.10;99.90;;;;;;5066023;28;20479;-72
2022/11/28 07:39:31;;;;;;;12.90;7.57;;;4.20;99.90;;;;;;5072915;28;20032;-74
2022/11/28 07:41:57;;;;;;;13.60;8.52;;;4.20;99.90;;;;;;5073108;28;20034;-74
2022/11/28 07:44:22;;;;;;;12.88;7.63;;;4.30;99.90;;;;;;5072781;28;20024;-72
2022/11/28 07:46:48;;;;;;;12.88;7.82;;;4.30;99.90;;;;;;5072739;28;20388;-72
2022/11/28 07:49:14;;;;;;;18.90;8.32;;;4.30;99.90;;;;;;5063277;28;20028;-73
2022/11/28 07:51:40;;;;;;;18.15;8.02;;;4.40;99.90;;;;;;5065478;28;20257;-74
2022/11/28 07:54:07;;;;;;;15.48;8.40;;;4.50;99.90;;;;;;5070100;28;20033;-73
2022/11/28 07:56:35;;;;;;;13.95;8.30;;;4.50;99.90;;;;;;5064722;28;20039;-72
2022/11/28 07:59:01;;;;;;;12.55;8.35;;;4.50;99.90;;;;;;5072392;28;20399;-72
2022/11/28 08:01:29;;;;;;;14.52;8.70;;;4.50;99.90;;;;;;5059548;28;20021;-73
2022/11/28 08:03:56;;;;;;;14.75;8.90;;;4.50;99.90;;;;;;5074346;28;20033;-72
2022/11/28 08:06:25;;;;;;;12.90;8.23;;;4.50;99.90;;;;;;5066920;28;20139;-69
2022/11/28 08:08:51;;;;;;;15.30;8.50;;;4.50;99.90;;;;;;5062888;28;20364;-72
2022/11/28 08:11:18;;;;;;;15.80;8.10;;;4.60;99.90;;;;;;5071174;28;20527;-70
2022/11/28 08:13:44;;;;;;;18.45;8.65;;;4.60;99.90;;;;;;5069717;28;20029;-74
2022/11/28 08:16:16;;;;;;;14.50;8.80;;;4.60;99.90;;;;;;5069306;28;20036;-73
2022/11/28 08:18:42;;;;;;;13.43;8.70;;;4.60;99.90;;;;;;5069827;28;20052;-72
2022/11/28 08:21:11;;;;;;;12.60;8.00;;;4.70;99.90;;;;;;5059723;28;20064;-74
2022/11/28 08:23:37;;;;;;;16.40;9.05;;;4.70;99.90;;;;;;5061697;28;20111;-73
2022/11/28 08:26:04;;;;;;;14.85;8.77;;;4.80;99.90;;;;;;5065857;28;20398;-73
2022/11/28 08:28:30;;;;;;;15.05;8.70;;;4.90;99.90;;;;;;5068777;28;20028;-73
2022/11/28 08:30:58;;;;;;;15.07;8.93;;;4.90;99.90;;;;;;5071735;28;20032;-73
2022/11/28 08:33:24;;;;;;;15.70;8.80;;;5.00;99.90;;;;;;5070953;28;20029;-71
2022/11/28 08:35:50;;;;;;;15.75;8.43;;;5.10;99.90;;;;;;5072652;28;20059;-73
2022/11/28 08:38:16;;;;;;;12.07;7.75;;;5.10;99.90;;;;;;5072905;28;20378;-75
2022/11/28 08:40:41;;;;;;;12.82;8.68;;;5.20;99.90;;;;;;5071867;28;20123;-74
2022/11/28 08:43:08;;;;;;;11.88;7.63;;;5.20;99.90;;;;;;5059466;28;20032;-74
2022/11/28 08:45:36;;;;;;;15.23;8.40;;;5.30;99.90;;;;;;5071395;28;20036;-73
2022/11/28 08:48:02;;;;;;;13.93;8.60;;;5.40;99.90;;;;;;5062059;28;20132;-74
2022/11/28 08:50:27;;;;;;;18.70;9.15;;;5.60;99.90;;;;;;5067630;28;20426;-73
2022/11/28 08:52:53;;;;;;;13.77;8.00;;;5.70;99.90;;;;;;5070452;28;20028;-74
2022/11/28 08:55:18;;;;;;;14.55;8.25;;;5.80;99.90;;;;;;5071048;28;20036;-71
2022/11/28 08:57:44;;;;;;;14.43;9.07;;;5.80;99.90;;;;;;5072075;28;20032;-74
2022/11/28 09:00:13;;;;;;;17.38;8.93;;;5.80;99.90;;;;;;5072123;28;20055;-75
2022/11/28 09:02:39;;;;;;;17.17;9.10;;;5.80;99.90;;;;;;5071095;28;20062;-74
2022/11/28 09:05:05;;;;;;;13.45;8.30;;;5.80;99.90;;;;;;5071766;28;20107;-73
2022/11/28 09:07:30;;;;;;;13.80;9.15;;;5.90;99.90;;;;;;5068242;28;20115;-74
2022/11/28 09:09:56;;;;;;;13.52;8.18;;;5.90;99.90;;;;;;5072790;28;20064;-74
2022/11/28 09:12:22;;;;;;;14.13;8.10;;;5.90;99.90;;;;;;5071692;28;20033;-69
2022/11/28 09:14:47;;;;;;;13.98;8.00;;;5.90;99.90;;;;;;5074978;28;20435;-75
2022/11/28 09:17:14;;;;;;;12.13;7.78;;;5.90;99.90;;;;;;5070340;28;20033;-75
2022/11/28 09:19:40;;;;;;;15.27;8.32;;;6.00;99.90;;;;;;5070974;28;20028;-75
2022/11/28 09:22:06;;;;;;;15.75;7.93;;;6.00;99.90;;;;;;5071202;28;20056;-75
2022/11/28 09:24:31;;;;;;;16.20;8.82;;;6.00;99.90;;;;;;5071328;28;20060;-74
2022/11/28 09:26:57;;;;;;;14.35;8.98;;;6.10;99.90;;;;;;5058358;28;20025;-74
2022/11/28 09:29:23;;;;;;;12.95;7.93;;;6.10;99.90;;;;;;5070533;28;20497;-74
2022/11/28 09:31:48;;;;;;;12.88;8.40;;;6.10;99.90;;;;;;5071514;28;20115;-75
2022/11/28 09:34:14;;;;;;;15.20;7.65;;;6.20;99.90;;;;;;5070388;28;20046;-75
2022/11/28 09:36:40;;;;;;;10.95;7.05;;;6.20;99.90;;;;;;5069262;28;20116;-75
2022/11/28 09:39:06;;;;;;;19.92;8.43;;;6.20;99.90;;;;;;5071828;28;20032;-75
2022/11/28 09:41:41;;;;;;;11.65;7.90;;;6.30;99.90;;;;;;5067903;28;20075;-74
2022/11/28 09:44:20;;;;;;;14.45;7.40;;;6.40;99.90;;;;;;5071389;28;20036;-75
2022/11/28 09:46:47;;;;;;;13.02;7.70;;;;;;;;;;5071295;28;20495;-74
2022/11/28 09:49:32;;;;;;;15.50;7.65;;;;;;;;;;5069679;28;20031;-72
2022/11/28 09:52:04;;;;;;;13.68;7.70;;;;;;;;;;5062624;28;20028;-74
2022/11/28 09:54:30;;;;;;;13.93;8.20;;;;;;;;;;5046514;28;20168;-75
2022/11/28 09:56:56;;;;;;;13.07;8.75;;;;;;;;;;5070680;28;20099;-74
2022/11/28 09:59:22;;;;;;;16.52;9.30;;;;;;;;;;5069560;28;20023;-73
2022/11/28 10:01:48;;;;;;;17.73;8.27;;;;;;;;;;5070855;28;20103;-74
2022/11/28 10:04:29;;;;;;;17.08;8.85;;;;;;;;;;5067411;28;20048;-74
2022/11/28 10:07:14;;;;;;;11.63;7.75;;;;;;;;;;5067828;28;20375;-75
2022/11/28 10:09:47;;;;;;;16.83;7.97;;;;;;;;;;5057501;28;20028;-75
2022/11/28 10:12:31;;;;;;;14.30;7.82;;;;;;;;;;5066656;28;20032;-75
2022/11/28 10:15:16;;;;;;;14.38;7.97;;;;;;;;;;5069696;28;20036;-75
2022/11/28 10:17:54;;;;;;;14.32;8.20;;;;;;;;;;5060341;28;20120;-76
2022/11/28 10:20:24;;;;;;;16.50;8.50;;;;;;;;;;5056154;28;20387;-70
2022/11/28 10:22:56;;;;;;;14.43;6.65;;;;;;;;;;5065932;28;20025;-76
2022/11/28 10:25:26;;;;;;;8.07;5.35;;;;;;;;;;5059555;28;20036;-70
2022/11/28 10:27:52;;;;;;;10.23;6.30;;;;;;;;;;5069862;28;20060;-76
2022/11/28 10:30:22;;;;;;;10.95;6.05;;;;;;;;;;5070615;28;20082;-71
2022/11/28 10:32:53;;;;;;;8.77;5.38;;;;;;;;;;5070490;28;20068;-75
2022/11/28 10:35:27;;;;;;;13.18;6.07;;;;;;;;;;5068478;28;20491;-71
2022/11/28 10:37:53;;;;;;;12.73;7.00;;;;;;;;;;5051729;28;20430;-75
2022/11/28 10:40:41;;;;;;;17.15;7.53;;;;;;;;;;5067343;28;20017;-71
2022/11/28 10:43:15;;;;;;;12.65;7.65;;;;;;;;;;5067501;28;20071;-74
2022/11/28 10:45:52;;;;;;;15.50;7.65;;;;;;;;;;5065200;28;20090;-74
2022/11/28 10:48:31;;;;;;;10.40;7.18;;;;;;;;;;5068884;28;20511;-73
2022/11/28 10:51:12;;;;;;;14.38;7.53;;;;;;;;;;5062925;28;20028;-73
2022/11/28 10:53:38;;;;;;;14.43;7.68;;;;;;;;;;5063335;28;20035;-76
2022/11/28 10:56:24;;;;;;;10.57;7.03;;;;;;;;;;5069563;28;20140;-73
2022/11/28 10:59:04;;;;;;;16.83;7.93;;;;;;;;;;5064368;28;20031;-73
2022/11/28 11:01:33;;;;;;;14.38;8.75;;;;;;;;;;5057780;28;20025;-74
2022/11/28 11:03:59;;;;;;;15.07;8.20;;;;;;;;;;5069818;28;20025;-74
2022/11/28 11:06:26;;;;;;;16.00;9.38;;;;;;;;;;5068114;28;20016;-74
2022/11/28 11:08:52;;;;;;;18.08;8.95;;;;;;;;;;5060283;28;20025;-74
2022/11/28 11:11:20;;;;;;;13.75;8.48;;;;;;;;;;5066415;28;20044;-71
2022/11/28 11:13:59;;;;;;;13.82;7.18;;;;;;;;;;5073315;28;20796;-73
2022/11/28 11:16:45;;;;;;;14.27;8.50;;;;;;;;;;5065398;28;20035;-74
2022/11/28 11:19:35;;;;;;;13.57;7.25;;;;;;;;;;5069068;28;20021;-75
2022/11/28 11:22:09;;;;;;;12.57;7.70;;;;;;;;;;5049374;28;20055;-74
2022/11/28 11:24:36;;;;;;;11.18;7.65;;;;;;;;;;5065800;28;20421;-73
2022/11/28 11:27:03;;;;;;;14.30;8.05;;;;;;;;;;5073673;28;20044;-74
2022/11/28 11:29:34;;;;;;;15.55;8.30;;;;;;;;;;5062552;28;20040;-74
2022/11/28 11:32:04;;;;;;;17.30;8.77;;;;;;;;;;5072389;28;20438;-74
2022/11/28 11:34:35;;;;;;;19.55;9.77;;;;;;;;;;5073219;28;20027;-73
2022/11/28 11:37:20;;;;;;;13.20;9.55;;;;;;;;;;5072818;28;20371;-75
2022/11/28 11:39:48;;;;;;;14.57;9.27;;;;;;;;;;5068779;28;20036;-73
2022/11/28 11:42:19;;;;;;;15.43;9.63;;;;;;;;;;5073425;28;20028;-73
2022/11/28 11:44:45;;;;;;;14.85;9.52;;;;;;;;;;5073478;28;20020;-73
2022/11/28 11:50:04;;;;;;;16.17;9.57;;;;;;;;;;5065948;27;20162;-76
2022/11/28 11:52:30;;;;;;;15.85;10.43;;;;;;;;;;5065186;28;20125;-74
2022/11/28 11:54:56;;;;;;;17.30;10.52;;;;;;;;;;5060237;28;20029;-75
2022/11/28 11:57:33;;;;;;;13.55;9.13;;;;;;;;;;5072015;28;20025;-72
2022/11/28 12:00:02;;;;;;;13.95;9.55;;;;;;;;;;5072071;28;20490;-75
2022/11/28 12:02:32;;;;;;;14.38;10.07;;;;;;;;;;5067770;28;20383;-75
2022/11/28 12:05:09;;;;;;;15.13;9.90;;;;;;;;;;5062462;28;20035;-76
2022/11/28 12:07:41;;;;;;;14.93;9.57;;;;;;;;;;5069769;28;20041;-75
2022/11/28 12:10:10;;;;;;;18.08;9.90;;;;;;;;;;5073500;28;20031;-74
2022/11/28 12:12:37;;;;;;;16.42;10.82;;;;;;;;;;5071055;28;20029;-75
2022/11/28 12:15:03;;;;;;;19.75;11.23;;;;;;;;;;5073838;28;20028;-76
2022/11/28 12:17:37;;;;;;;14.48;9.65;;;;;;;;;;5074684;28;20418;-80
2022/11/28 12:20:29;;;;;;;19.17;10.57;;;;;;;;;;5074236;28;20032;-79
2022/11/28 12:23:14;;;;;;;16.90;11.52;;;;;;;;;;5065842;28;20475;-79
2022/11/28 12:26:03;;;;;;;21.50;11.50;;;;;;;;;;5073999;28;20067;-79
2022/11/28 12:29:05;;;;;;;17.38;11.18;;;;;;;;;;5011125;28;20360;-78
2022/11/28 12:31:33;;;;;;;17.35;10.52;;;;;;;;;;4975421;28;20517;-80
2022/11/28 12:34:02;;;;;;;16.50;10.60;;;;;;;;;;5047592;28;20426;-78
2022/11/28 12:36:33;;;;;;;18.40;11.52;;;;;;;;;;5071501;28;20028;-77
2022/11/28 12:39:12;;;;;;;17.58;12.18;;;;;;;;;;5067620;28;20075;-78
2022/11/28 12:41:41;;;;;;;17.50;11.13;;;;;;;;;;5065965;28;20024;-78
2022/11/28 12:44:19;;;;;;;15.13;10.13;;;;;;;;;;5065802;28;20028;-78
2022/11/28 12:46:58;;;;;;;12.77;9.63;;;;;;;;;;5074117;28;20485;-80
2022/11/28 12:49:39;;;;;;;15.88;10.52;;;;;;;;;;5075660;27;20044;-78
2022/11/28 12:52:13;;;;;;;18.00;10.18;;;;;;;;;;5065579;28;20037;-80
2022/11/28 12:54:42;;;;;;;16.83;9.85;;;;;;;;;;5075449;28;20051;-80
2022/11/28 12:57:11;;;;;;;17.63;10.35;;;;;;;;;;5069806;28;20368;-80
2022/11/28 12:59:36;;;;;;;15.68;11.02;;;;;;;;;;5074425;28;20083;-79
2022/11/28 13:02:09;;;;;;;16.15;10.73;;;;;;;;;;5074914;28;20032;-80
2022/11/28 13:04:41;;;;;;;18.10;10.43;;;;;;;;;;5066823;28;20474;-79
2022/11/28 13:07:16;;;;;;;16.73;11.18;;;;;;;;;;5075059;28;20137;-79
2022/11/28 13:10:04;;;;;;;17.17;9.90;;;;;;;;;;5075306;28;20036;-80
2022/11/28 13:12:33;;;;;;;19.00;11.60;;;;;;;;;;5073978;28;20170;-79
2022/11/28 13:15:02;;;;;;;17.90;11.10;;;;;;;;;;5072730;28;20479;-80
2022/11/28 13:17:34;;;;;;;17.40;12.10;;;;;;;;;;5070452;28;20024;-79
2022/11/28 13:20:00;;;;;;;19.60;12.25;;;;;;;;;;5062377;28;20468;-79
2022/11/28 13:22:37;;;;;;;26.85;15.15;;;;;;;;;;5070916;28;20040;-79
2022/11/28 13:25:22;;;;;;;23.83;13.32;;;;;;;;;;5075268;28;20035;-79
2022/11/28 13:27:53;;;;;;;20.17;12.70;;;;;;;;;;5073348;28;20021;-78
2022/11/28 13:30:24;;;;;;;25.63;13.93;;;;;;;;;;5074555;28;20147;-73
2022/11/28 13:32:50;;;;;;;24.90;14.32;;;;;;;;;;5068979;28;20483;-79
2022/11/28 13:35:17;;;;;;;22.13;12.90;;;;;;;;;;5074882;28;20032;-78
2022/11/28 13:37:43;;;;;;;18.85;11.93;;;;;;;;;;5074590;28;20047;-77
2022/11/28 13:40:21;;;;;;;22.33;12.60;;;;;;;;;;5075973;28;20024;-77
2022/11/28 13:42:50;;;;;;;20.70;11.68;;;;;;;;;;5074721;28;20024;-78
2022/11/28 13:45:20;;;;;;;21.88;12.18;;;;;;;;;;5074530;28;20028;-78
2022/11/28 13:47:46;;;;;;;18.85;10.65;;;;;;;;;;5071627;28;20032;-77